sensor_id;sensor_type;location;lat;lon;timestamp;P1;durP1;ratioP1;P2;durP2;ratioP2
11921;SDS011;6021;51.182;3.160;2022-07-23T00:00:47;2.50;;;2.30;;
11921;SDS011;6021;51.182;3.160;2022-07-23T00:03:15;3.07;;;2.70;;
11921;SDS011;6021;51.182;3.160;2022-07-23T00:05:43;4.83;;;2.80;;
11921;SDS011;6021;51.182;3.160;2022-07-23T00:08:12;3.73;;;2.37;;
11921;SDS011;6021;51.182;3.160;2022-07-23T00:10:40;2.80;;;2.40;;
11921;SDS011;6021;51.182;3.160;2022-07-23T00:13:09;2.80;;;2.50;;
11921;SDS011;6021;51.182;3.160;2022-07-23T00:15:37;3.83;;;2.40;;
11921;SDS011;6021;51.182;3.160;2022-07-23T00:18:05;2.73;;;2.53;;
11921;SDS011;6021;51.182;3.160;2022-07-23T00:20:34;4.07;;;2.47;;
11921;SDS011;6021;51.182;3.160;2022-07-23T00:23:02;2.53;;;2.33;;
11921;SDS011;6021;51.182;3.160;2022-07-23T00:25:31;3.07;;;2.60;;
11921;SDS011;6021;51.182;3.160;2022-07-23T00:27:59;2.77;;;2.40;;
11921;SDS011;6021;51.182;3.160;2022-07-23T00:30:29;3.60;;;2.57;;
11921;SDS011;6021;51.182;3.160;2022-07-23T00:32:59;2.90;;;2.70;;
11921;SDS011;6021;51.182;3.160;2022-07-23T00:35:30;3.13;;;2.83;;
11921;SDS011;6021;51.182;3.160;2022-07-23T00:38:01;3.37;;;3.00;;
11921;SDS011;6021;51.182;3.160;2022-07-23T00:40:31;3.77;;;2.73;;
11921;SDS011;6021;51.182;3.160;2022-07-23T00:43:00;3.70;;;2.90;;
11921;SDS011;6021;51.182;3.160;2022-07-23T00:45:29;3.67;;;3.13;;
11921;SDS011;6021;51.182;3.160;2022-07-23T00:47:57;2.67;;;2.47;;
11921;SDS011;6021;51.182;3.160;2022-07-23T00:50:26;4.60;;;2.90;;
11921;SDS011;6021;51.182;3.160;2022-07-23T00:52:55;3.53;;;2.80;;
11921;SDS011;6021;51.182;3.160;2022-07-23T00:55:24;5.27;;;2.73;;
11921;SDS011;6021;51.182;3.160;2022-07-23T00:57:52;5.20;;;2.67;;
11921;SDS011;6021;51.182;3.160;2022-07-23T01:00:22;2.80;;;2.33;;
11921;SDS011;6021;51.182;3.160;2022-07-23T01:02:50;2.70;;;2.50;;
11921;SDS011;6021;51.182;3.160;2022-07-23T01:05:19;3.23;;;2.93;;
11921;SDS011;6021;51.182;3.160;2022-07-23T01:07:49;3.73;;;3.00;;
11921;SDS011;6021;51.182;3.160;2022-07-23T01:10:19;3.33;;;2.80;;
11921;SDS011;6021;51.182;3.160;2022-07-23T01:13:00;3.90;;;3.50;;
11921;SDS011;6021;51.182;3.160;2022-07-23T01:15:34;4.37;;;3.67;;
11921;SDS011;6021;51.182;3.160;2022-07-23T01:18:04;5.03;;;3.83;;
11921;SDS011;6021;51.182;3.160;2022-07-23T01:20:34;5.70;;;3.80;;
11921;SDS011;6021;51.182;3.160;2022-07-23T01:23:02;3.53;;;3.20;;
11921;SDS011;6021;51.182;3.160;2022-07-23T01:25:31;4.40;;;3.73;;
11921;SDS011;6021;51.182;3.160;2022-07-23T01:27:59;3.50;;;3.20;;
11921;SDS011;6021;51.182;3.160;2022-07-23T01:30:28;4.00;;;3.50;;
11921;SDS011;6021;51.182;3.160;2022-07-23T01:32:56;3.73;;;3.40;;
11921;SDS011;6021;51.182;3.160;2022-07-23T01:35:24;3.50;;;3.20;;
11921;SDS011;6021;51.182;3.160;2022-07-23T01:37:53;3.60;;;3.30;;
11921;SDS011;6021;51.182;3.160;2022-07-23T01:40:21;3.50;;;3.20;;
11921;SDS011;6021;51.182;3.160;2022-07-23T01:42:49;3.57;;;3.10;;
11921;SDS011;6021;51.182;3.160;2022-07-23T01:45:18;4.43;;;3.20;;
11921;SDS011;6021;51.182;3.160;2022-07-23T01:47:46;3.87;;;3.50;;
11921;SDS011;6021;51.182;3.160;2022-07-23T01:50:15;4.80;;;4.30;;
11921;SDS011;6021;51.182;3.160;2022-07-23T01:52:43;5.00;;;4.30;;
11921;SDS011;6021;51.182;3.160;2022-07-23T01:55:11;5.50;;;4.33;;
11921;SDS011;6021;51.182;3.160;2022-07-23T01:57:40;6.43;;;4.80;;
11921;SDS011;6021;51.182;3.160;2022-07-23T02:00:08;7.73;;;4.90;;
11921;SDS011;6021;51.182;3.160;2022-07-23T02:02:37;5.23;;;4.73;;
11921;SDS011;6021;51.182;3.160;2022-07-23T02:05:06;5.23;;;4.67;;
11921;SDS011;6021;51.182;3.160;2022-07-23T02:07:34;6.27;;;5.30;;
11921;SDS011;6021;51.182;3.160;2022-07-23T02:10:02;5.80;;;5.20;;
11921;SDS011;6021;51.182;3.160;2022-07-23T02:12:31;7.60;;;5.80;;
11921;SDS011;6021;51.182;3.160;2022-07-23T02:14:59;5.20;;;4.70;;
11921;SDS011;6021;51.182;3.160;2022-07-23T02:17:28;5.47;;;4.83;;
11921;SDS011;6021;51.182;3.160;2022-07-23T02:19:56;6.87;;;5.93;;
11921;SDS011;6021;51.182;3.160;2022-07-23T02:22:25;5.80;;;5.20;;
11921;SDS011;6021;51.182;3.160;2022-07-23T02:24:53;7.07;;;6.00;;
11921;SDS011;6021;51.182;3.160;2022-07-23T02:27:21;5.63;;;4.77;;
11921;SDS011;6021;51.182;3.160;2022-07-23T02:29:50;5.13;;;4.63;;
11921;SDS011;6021;51.182;3.160;2022-07-23T02:32:18;5.50;;;4.70;;
11921;SDS011;6021;51.182;3.160;2022-07-23T02:34:47;6.87;;;5.73;;
11921;SDS011;6021;51.182;3.160;2022-07-23T02:37:16;6.60;;;5.93;;
11921;SDS011;6021;51.182;3.160;2022-07-23T02:39:44;6.80;;;6.10;;
11921;SDS011;6021;51.182;3.160;2022-07-23T02:42:15;7.23;;;6.53;;
11921;SDS011;6021;51.182;3.160;2022-07-23T02:44:44;6.27;;;5.60;;
11921;SDS011;6021;51.182;3.160;2022-07-23T02:47:12;6.00;;;5.00;;
11921;SDS011;6021;51.182;3.160;2022-07-23T02:49:40;5.73;;;5.00;;
11921;SDS011;6021;51.182;3.160;2022-07-23T02:52:09;5.10;;;4.60;;
11921;SDS011;6021;51.182;3.160;2022-07-23T02:54:37;6.60;;;5.70;;
11921;SDS011;6021;51.182;3.160;2022-07-23T02:57:05;6.43;;;5.87;;
11921;SDS011;6021;51.182;3.160;2022-07-23T02:59:34;5.90;;;4.97;;
11921;SDS011;6021;51.182;3.160;2022-07-23T03:02:02;5.57;;;5.07;;
11921;SDS011;6021;51.182;3.160;2022-07-23T03:04:30;4.57;;;4.17;;
11921;SDS011;6021;51.182;3.160;2022-07-23T03:06:59;5.87;;;5.33;;
11921;SDS011;6021;51.182;3.160;2022-07-23T03:09:27;5.53;;;4.97;;
11921;SDS011;6021;51.182;3.160;2022-07-23T03:11:55;5.70;;;5.10;;
11921;SDS011;6021;51.182;3.160;2022-07-23T03:14:24;5.03;;;4.63;;
11921;SDS011;6021;51.182;3.160;2022-07-23T03:16:54;5.23;;;4.73;;
11921;SDS011;6021;51.182;3.160;2022-07-23T03:19:22;6.73;;;5.87;;
11921;SDS011;6021;51.182;3.160;2022-07-23T03:21:51;6.70;;;6.07;;
11921;SDS011;6021;51.182;3.160;2022-07-23T03:24:19;6.70;;;6.10;;
11921;SDS011;6021;51.182;3.160;2022-07-23T03:26:49;6.23;;;5.40;;
11921;SDS011;6021;51.182;3.160;2022-07-23T03:29:17;5.73;;;5.23;;
11921;SDS011;6021;51.182;3.160;2022-07-23T03:31:46;6.00;;;5.40;;
11921;SDS011;6021;51.182;3.160;2022-07-23T03:34:14;5.80;;;5.20;;
11921;SDS011;6021;51.182;3.160;2022-07-23T03:36:44;6.07;;;5.57;;
11921;SDS011;6021;51.182;3.160;2022-07-23T03:39:12;5.87;;;5.23;;
11921;SDS011;6021;51.182;3.160;2022-07-23T03:41:40;5.93;;;5.33;;
11921;SDS011;6021;51.182;3.160;2022-07-23T03:44:09;5.30;;;4.73;;
11921;SDS011;6021;51.182;3.160;2022-07-23T03:46:37;5.87;;;5.27;;
11921;SDS011;6021;51.182;3.160;2022-07-23T03:49:05;7.00;;;6.30;;
11921;SDS011;6021;51.182;3.160;2022-07-23T03:51:34;8.60;;;6.67;;
11921;SDS011;6021;51.182;3.160;2022-07-23T03:54:02;7.60;;;6.80;;
11921;SDS011;6021;51.182;3.160;2022-07-23T03:56:30;7.30;;;6.40;;
11921;SDS011;6021;51.182;3.160;2022-07-23T03:58:59;8.37;;;6.47;;
11921;SDS011;6021;51.182;3.160;2022-07-23T04:01:27;9.27;;;6.93;;
11921;SDS011;6021;51.182;3.160;2022-07-23T04:03:56;8.23;;;7.20;;
11921;SDS011;6021;51.182;3.160;2022-07-23T04:06:24;9.03;;;7.37;;
11921;SDS011;6021;51.182;3.160;2022-07-23T04:08:53;9.50;;;7.97;;
11921;SDS011;6021;51.182;3.160;2022-07-23T04:11:22;7.83;;;7.00;;
11921;SDS011;6021;51.182;3.160;2022-07-23T04:13:50;10.23;;;7.53;;
11921;SDS011;6021;51.182;3.160;2022-07-23T04:16:18;8.27;;;7.00;;
11921;SDS011;6021;51.182;3.160;2022-07-23T04:18:47;8.93;;;7.20;;
11921;SDS011;6021;51.182;3.160;2022-07-23T04:21:15;6.77;;;6.07;;
11921;SDS011;6021;51.182;3.160;2022-07-23T04:23:44;6.80;;;6.10;;
11921;SDS011;6021;51.182;3.160;2022-07-23T04:26:12;9.27;;;7.53;;
11921;SDS011;6021;51.182;3.160;2022-07-23T04:28:41;8.27;;;6.70;;
11921;SDS011;6021;51.182;3.160;2022-07-23T04:31:10;8.27;;;7.17;;
11921;SDS011;6021;51.182;3.160;2022-07-23T04:33:39;9.53;;;7.43;;
11921;SDS011;6021;51.182;3.160;2022-07-23T04:36:07;10.53;;;7.60;;
11921;SDS011;6021;51.182;3.160;2022-07-23T04:38:36;8.10;;;6.80;;
11921;SDS011;6021;51.182;3.160;2022-07-23T04:41:04;9.10;;;6.73;;
11921;SDS011;6021;51.182;3.160;2022-07-23T04:43:32;9.23;;;7.30;;
11921;SDS011;6021;51.182;3.160;2022-07-23T04:46:01;9.53;;;6.83;;
11921;SDS011;6021;51.182;3.160;2022-07-23T04:48:29;8.77;;;6.90;;
11921;SDS011;6021;51.182;3.160;2022-07-23T04:50:57;11.10;;;7.57;;
11921;SDS011;6021;51.182;3.160;2022-07-23T04:53:26;12.30;;;8.17;;
11921;SDS011;6021;51.182;3.160;2022-07-23T04:55:54;11.80;;;8.17;;
11921;SDS011;6021;51.182;3.160;2022-07-23T04:58:23;10.33;;;7.23;;
11921;SDS011;6021;51.182;3.160;2022-07-23T05:00:51;9.93;;;7.57;;
11921;SDS011;6021;51.182;3.160;2022-07-23T05:03:19;12.13;;;8.17;;
11921;SDS011;6021;51.182;3.160;2022-07-23T05:05:47;12.47;;;8.80;;
11921;SDS011;6021;51.182;3.160;2022-07-23T05:08:16;13.13;;;8.33;;
11921;SDS011;6021;51.182;3.160;2022-07-23T05:10:45;14.07;;;8.77;;
11921;SDS011;6021;51.182;3.160;2022-07-23T05:13:16;14.63;;;10.97;;
11921;SDS011;6021;51.182;3.160;2022-07-23T05:15:45;13.57;;;11.27;;
11921;SDS011;6021;51.182;3.160;2022-07-23T05:18:13;12.67;;;10.33;;
11921;SDS011;6021;51.182;3.160;2022-07-23T05:20:41;9.87;;;8.17;;
11921;SDS011;6021;51.182;3.160;2022-07-23T05:23:10;9.43;;;7.57;;
11921;SDS011;6021;51.182;3.160;2022-07-23T05:25:39;10.00;;;7.43;;
11921;SDS011;6021;51.182;3.160;2022-07-23T05:28:08;9.17;;;6.87;;
11921;SDS011;6021;51.182;3.160;2022-07-23T05:30:36;14.57;;;9.53;;
11921;SDS011;6021;51.182;3.160;2022-07-23T05:33:05;15.13;;;10.50;;
11921;SDS011;6021;51.182;3.160;2022-07-23T05:35:34;12.03;;;9.20;;
11921;SDS011;6021;51.182;3.160;2022-07-23T05:38:03;15.63;;;10.33;;
11921;SDS011;6021;51.182;3.160;2022-07-23T05:40:31;10.93;;;8.70;;
11921;SDS011;6021;51.182;3.160;2022-07-23T05:43:00;13.57;;;10.10;;
11921;SDS011;6021;51.182;3.160;2022-07-23T05:45:28;11.53;;;9.30;;
11921;SDS011;6021;51.182;3.160;2022-07-23T05:47:56;11.80;;;8.67;;
11921;SDS011;6021;51.182;3.160;2022-07-23T05:50:27;12.50;;;9.40;;
11921;SDS011;6021;51.182;3.160;2022-07-23T05:52:56;12.33;;;9.27;;
11921;SDS011;6021;51.182;3.160;2022-07-23T05:55:24;9.17;;;7.73;;
11921;SDS011;6021;51.182;3.160;2022-07-23T05:57:55;9.50;;;8.03;;
11921;SDS011;6021;51.182;3.160;2022-07-23T06:00:24;9.50;;;8.20;;
11921;SDS011;6021;51.182;3.160;2022-07-23T06:02:53;8.70;;;7.20;;
11921;SDS011;6021;51.182;3.160;2022-07-23T06:05:21;9.20;;;8.30;;
11921;SDS011;6021;51.182;3.160;2022-07-23T06:07:50;7.87;;;7.03;;
11921;SDS011;6021;51.182;3.160;2022-07-23T06:10:19;8.00;;;6.43;;
11921;SDS011;6021;51.182;3.160;2022-07-23T06:12:48;8.07;;;7.13;;
11921;SDS011;6021;51.182;3.160;2022-07-23T06:15:16;9.20;;;7.90;;
11921;SDS011;6021;51.182;3.160;2022-07-23T06:17:44;12.83;;;10.10;;
11921;SDS011;6021;51.182;3.160;2022-07-23T06:20:13;11.90;;;8.90;;
11921;SDS011;6021;51.182;3.160;2022-07-23T06:22:41;12.57;;;10.13;;
11921;SDS011;6021;51.182;3.160;2022-07-23T06:25:10;13.30;;;10.13;;
11921;SDS011;6021;51.182;3.160;2022-07-23T06:27:38;12.20;;;9.93;;
11921;SDS011;6021;51.182;3.160;2022-07-23T06:30:07;10.83;;;9.73;;
11921;SDS011;6021;51.182;3.160;2022-07-23T06:32:36;14.23;;;10.20;;
11921;SDS011;6021;51.182;3.160;2022-07-23T06:35:05;11.67;;;10.47;;
11921;SDS011;6021;51.182;3.160;2022-07-23T06:37:33;14.30;;;10.60;;
11921;SDS011;6021;51.182;3.160;2022-07-23T06:40:02;11.47;;;9.07;;
11921;SDS011;6021;51.182;3.160;2022-07-23T06:42:31;10.07;;;8.43;;
11921;SDS011;6021;51.182;3.160;2022-07-23T06:44:59;12.60;;;9.30;;
11921;SDS011;6021;51.182;3.160;2022-07-23T06:47:27;13.10;;;10.30;;
11921;SDS011;6021;51.182;3.160;2022-07-23T06:49:56;11.27;;;9.67;;
11921;SDS011;6021;51.182;3.160;2022-07-23T06:52:24;11.93;;;10.23;;
11921;SDS011;6021;51.182;3.160;2022-07-23T06:54:52;10.67;;;9.57;;
11921;SDS011;6021;51.182;3.160;2022-07-23T06:57:21;12.10;;;9.93;;
11921;SDS011;6021;51.182;3.160;2022-07-23T06:59:51;11.20;;;8.87;;
11921;SDS011;6021;51.182;3.160;2022-07-23T07:02:20;9.83;;;8.60;;
11921;SDS011;6021;51.182;3.160;2022-07-23T07:04:48;11.50;;;9.00;;
11921;SDS011;6021;51.182;3.160;2022-07-23T07:07:17;10.50;;;9.40;;
11921;SDS011;6021;51.182;3.160;2022-07-23T07:09:45;10.90;;;9.00;;
11921;SDS011;6021;51.182;3.160;2022-07-23T07:12:14;11.50;;;9.70;;
11921;SDS011;6021;51.182;3.160;2022-07-23T07:14:42;9.50;;;8.40;;
11921;SDS011;6021;51.182;3.160;2022-07-23T07:17:13;11.63;;;9.93;;
11921;SDS011;6021;51.182;3.160;2022-07-23T07:19:42;12.07;;;10.10;;
11921;SDS011;6021;51.182;3.160;2022-07-23T07:22:10;10.17;;;9.07;;
11921;SDS011;6021;51.182;3.160;2022-07-23T07:24:38;10.93;;;9.23;;
11921;SDS011;6021;51.182;3.160;2022-07-23T07:27:07;11.00;;;8.90;;
11921;SDS011;6021;51.182;3.160;2022-07-23T07:29:35;10.23;;;8.97;;
11921;SDS011;6021;51.182;3.160;2022-07-23T07:32:03;9.60;;;8.60;;
11921;SDS011;6021;51.182;3.160;2022-07-23T07:34:33;11.03;;;9.23;;
11921;SDS011;6021;51.182;3.160;2022-07-23T07:37:01;10.00;;;8.93;;
11921;SDS011;6021;51.182;3.160;2022-07-23T07:39:29;8.87;;;7.93;;
11921;SDS011;6021;51.182;3.160;2022-07-23T07:41:58;10.03;;;8.70;;
11921;SDS011;6021;51.182;3.160;2022-07-23T07:44:26;8.57;;;7.57;;
11921;SDS011;6021;51.182;3.160;2022-07-23T07:46:54;12.43;;;8.53;;
11921;SDS011;6021;51.182;3.160;2022-07-23T07:49:23;9.33;;;8.43;;
11921;SDS011;6021;51.182;3.160;2022-07-23T07:51:51;9.73;;;7.67;;
11921;SDS011;6021;51.182;3.160;2022-07-23T07:54:20;9.13;;;7.30;;
11921;SDS011;6021;51.182;3.160;2022-07-23T07:56:48;8.30;;;6.60;;
11921;SDS011;6021;51.182;3.160;2022-07-23T07:59:16;7.63;;;6.93;;
11921;SDS011;6021;51.182;3.160;2022-07-23T08:01:45;8.67;;;7.80;;
11921;SDS011;6021;51.182;3.160;2022-07-23T08:04:13;7.10;;;6.40;;
11921;SDS011;6021;51.182;3.160;2022-07-23T08:06:41;8.70;;;7.80;;
11921;SDS011;6021;51.182;3.160;2022-07-23T08:09:10;8.40;;;7.10;;
11921;SDS011;6021;51.182;3.160;2022-07-23T08:11:38;9.40;;;7.90;;
11921;SDS011;6021;51.182;3.160;2022-07-23T08:14:06;9.87;;;8.57;;
11921;SDS011;6021;51.182;3.160;2022-07-23T08:16:35;9.73;;;8.83;;
11921;SDS011;6021;51.182;3.160;2022-07-23T08:19:04;12.60;;;10.60;;
11921;SDS011;6021;51.182;3.160;2022-07-23T08:21:32;11.90;;;10.30;;
11921;SDS011;6021;51.182;3.160;2022-07-23T08:24:00;12.20;;;11.00;;
11921;SDS011;6021;51.182;3.160;2022-07-23T08:26:29;10.33;;;9.30;;
11921;SDS011;6021;51.182;3.160;2022-07-23T08:28:57;10.03;;;9.00;;
11921;SDS011;6021;51.182;3.160;2022-07-23T08:31:26;9.20;;;8.30;;
11921;SDS011;6021;51.182;3.160;2022-07-23T08:33:54;11.80;;;9.53;;
11921;SDS011;6021;51.182;3.160;2022-07-23T08:36:23;9.60;;;8.70;;
11921;SDS011;6021;51.182;3.160;2022-07-23T08:38:54;10.17;;;9.10;;
11921;SDS011;6021;51.182;3.160;2022-07-23T08:41:22;11.10;;;9.87;;
11921;SDS011;6021;51.182;3.160;2022-07-23T08:43:50;11.63;;;10.40;;
11921;SDS011;6021;51.182;3.160;2022-07-23T08:46:20;9.30;;;8.40;;
11921;SDS011;6021;51.182;3.160;2022-07-23T08:48:49;12.50;;;11.20;;
11921;SDS011;6021;51.182;3.160;2022-07-23T08:51:18;11.10;;;9.83;;
11921;SDS011;6021;51.182;3.160;2022-07-23T08:53:46;12.47;;;11.17;;
11921;SDS011;6021;51.182;3.160;2022-07-23T08:56:15;10.93;;;9.80;;
11921;SDS011;6021;51.182;3.160;2022-07-23T08:58:43;9.30;;;8.43;;
11921;SDS011;6021;51.182;3.160;2022-07-23T09:01:11;13.40;;;11.80;;
11921;SDS011;6021;51.182;3.160;2022-07-23T09:03:41;13.13;;;11.63;;
11921;SDS011;6021;51.182;3.160;2022-07-23T09:06:11;15.87;;;12.47;;
11921;SDS011;6021;51.182;3.160;2022-07-23T09:08:40;14.97;;;12.73;;
11921;SDS011;6021;51.182;3.160;2022-07-23T09:11:11;13.27;;;10.67;;
11921;SDS011;6021;51.182;3.160;2022-07-23T09:13:46;13.90;;;12.50;;
11921;SDS011;6021;51.182;3.160;2022-07-23T09:18:57;16.07;;;14.47;;
11921;SDS011;6021;51.182;3.160;2022-07-23T09:21:33;11.90;;;10.70;;
11921;SDS011;6021;51.182;3.160;2022-07-23T09:24:04;12.60;;;11.33;;
11921;SDS011;6021;51.182;3.160;2022-07-23T09:31:48;12.40;;;11.07;;
11921;SDS011;6021;51.182;3.160;2022-07-23T09:34:27;12.20;;;9.80;;
11921;SDS011;6021;51.182;3.160;2022-07-23T09:37:09;11.17;;;9.60;;
11921;SDS011;6021;51.182;3.160;2022-07-23T09:39:40;10.20;;;9.27;;
11921;SDS011;6021;51.182;3.160;2022-07-23T09:42:13;11.47;;;10.10;;
11921;SDS011;6021;51.182;3.160;2022-07-23T09:44:49;10.73;;;9.00;;
11921;SDS011;6021;51.182;3.160;2022-07-23T09:47:20;12.00;;;10.80;;
11921;SDS011;6021;51.182;3.160;2022-07-23T09:52:36;13.07;;;9.70;;
11921;SDS011;6021;51.182;3.160;2022-07-23T09:55:16;11.27;;;9.07;;
11921;SDS011;6021;51.182;3.160;2022-07-23T09:57:46;11.57;;;10.40;;
11921;SDS011;6021;51.182;3.160;2022-07-23T10:00:19;11.33;;;10.17;;
11921;SDS011;6021;51.182;3.160;2022-07-23T10:02:47;12.27;;;10.47;;
11921;SDS011;6021;51.182;3.160;2022-07-23T10:05:19;11.03;;;9.73;;
11921;SDS011;6021;51.182;3.160;2022-07-23T10:07:47;11.43;;;10.30;;
11921;SDS011;6021;51.182;3.160;2022-07-23T10:10:18;11.30;;;9.60;;
11921;SDS011;6021;51.182;3.160;2022-07-23T10:12:48;9.83;;;8.50;;
11921;SDS011;6021;51.182;3.160;2022-07-23T10:15:34;10.23;;;8.83;;
11921;SDS011;6021;51.182;3.160;2022-07-23T10:18:03;10.93;;;9.80;;
11921;SDS011;6021;51.182;3.160;2022-07-23T10:20:32;11.33;;;10.27;;
11921;SDS011;6021;51.182;3.160;2022-07-23T10:25:55;9.63;;;8.73;;
11921;SDS011;6021;51.182;3.160;2022-07-23T10:31:40;10.33;;;9.30;;
11921;SDS011;6021;51.182;3.160;2022-07-23T10:34:13;10.50;;;9.53;;
11921;SDS011;6021;51.182;3.160;2022-07-23T10:36:59;10.57;;;9.47;;
11921;SDS011;6021;51.182;3.160;2022-07-23T10:39:30;11.80;;;10.43;;
11921;SDS011;6021;51.182;3.160;2022-07-23T10:42:10;10.53;;;9.40;;
11921;SDS011;6021;51.182;3.160;2022-07-23T10:44:44;10.50;;;9.17;;
11921;SDS011;6021;51.182;3.160;2022-07-23T10:47:27;9.97;;;9.00;;
11921;SDS011;6021;51.182;3.160;2022-07-23T10:55:39;10.30;;;9.20;;
11921;SDS011;6021;51.182;3.160;2022-07-23T10:58:17;10.10;;;8.87;;
11921;SDS011;6021;51.182;3.160;2022-07-23T11:00:44;10.90;;;9.80;;
11921;SDS011;6021;51.182;3.160;2022-07-23T11:03:32;11.43;;;10.23;;
11921;SDS011;6021;51.182;3.160;2022-07-23T11:06:03;12.77;;;11.47;;
11921;SDS011;6021;51.182;3.160;2022-07-23T11:08:32;14.60;;;11.57;;
11921;SDS011;6021;51.182;3.160;2022-07-23T11:13:40;10.07;;;8.70;;
11921;SDS011;6021;51.182;3.160;2022-07-23T11:16:21;10.47;;;8.97;;
11921;SDS011;6021;51.182;3.160;2022-07-23T11:32:02;8.17;;;7.30;;
11921;SDS011;6021;51.182;3.160;2022-07-23T11:37:04;11.60;;;10.30;;
11921;SDS011;6021;51.182;3.160;2022-07-23T11:39:34;12.57;;;10.37;;
11921;SDS011;6021;51.182;3.160;2022-07-23T11:42:05;9.87;;;8.97;;
11921;SDS011;6021;51.182;3.160;2022-07-23T11:44:35;12.07;;;10.03;;
11921;SDS011;6021;51.182;3.160;2022-07-23T11:47:06;11.53;;;10.43;;
11921;SDS011;6021;51.182;3.160;2022-07-23T11:49:36;9.97;;;8.43;;
11921;SDS011;6021;51.182;3.160;2022-07-23T11:52:14;8.77;;;7.87;;
11921;SDS011;6021;51.182;3.160;2022-07-23T11:54:50;11.83;;;10.60;;
11921;SDS011;6021;51.182;3.160;2022-07-23T11:57:20;10.77;;;8.27;;
11921;SDS011;6021;51.182;3.160;2022-07-23T11:59:58;7.40;;;6.70;;
11921;SDS011;6021;51.182;3.160;2022-07-23T12:02:25;8.33;;;6.80;;
11921;SDS011;6021;51.182;3.160;2022-07-23T12:04:53;10.30;;;9.30;;
11921;SDS011;6021;51.182;3.160;2022-07-23T12:07:27;9.53;;;8.10;;
11921;SDS011;6021;51.182;3.160;2022-07-23T12:09:54;8.17;;;7.43;;
11921;SDS011;6021;51.182;3.160;2022-07-23T12:12:23;6.73;;;6.13;;
11921;SDS011;6021;51.182;3.160;2022-07-23T12:14:55;11.73;;;10.20;;
11921;SDS011;6021;51.182;3.160;2022-07-23T12:17:34;10.23;;;8.73;;
11921;SDS011;6021;51.182;3.160;2022-07-23T12:20:04;8.00;;;6.90;;
11921;SDS011;6021;51.182;3.160;2022-07-23T12:22:34;10.90;;;9.17;;
11921;SDS011;6021;51.182;3.160;2022-07-23T12:25:08;7.53;;;6.77;;
11921;SDS011;6021;51.182;3.160;2022-07-23T12:27:38;9.90;;;8.90;;
11921;SDS011;6021;51.182;3.160;2022-07-23T12:30:26;8.00;;;7.17;;
11921;SDS011;6021;51.182;3.160;2022-07-23T12:32:56;7.83;;;7.10;;
11921;SDS011;6021;51.182;3.160;2022-07-23T12:35:30;6.77;;;6.17;;
11921;SDS011;6021;51.182;3.160;2022-07-23T12:38:02;7.70;;;6.97;;
11921;SDS011;6021;51.182;3.160;2022-07-23T12:40:33;7.03;;;6.37;;
11921;SDS011;6021;51.182;3.160;2022-07-23T12:43:09;13.87;;;12.10;;
11921;SDS011;6021;51.182;3.160;2022-07-23T12:45:42;13.50;;;11.30;;
11921;SDS011;6021;51.182;3.160;2022-07-23T12:48:15;15.70;;;14.20;;
11921;SDS011;6021;51.182;3.160;2022-07-23T12:55:57;12.83;;;11.10;;
11921;SDS011;6021;51.182;3.160;2022-07-23T13:01:44;9.80;;;8.80;;
11921;SDS011;6021;51.182;3.160;2022-07-23T13:04:17;9.90;;;9.00;;
11921;SDS011;6021;51.182;3.160;2022-07-23T13:06:47;14.03;;;12.67;;
11921;SDS011;6021;51.182;3.160;2022-07-23T13:09:18;18.10;;;13.17;;
11921;SDS011;6021;51.182;3.160;2022-07-23T13:11:53;11.77;;;10.67;;
11921;SDS011;6021;51.182;3.160;2022-07-23T13:14:22;11.40;;;10.27;;
11921;SDS011;6021;51.182;3.160;2022-07-23T13:16:52;12.33;;;11.20;;
11921;SDS011;6021;51.182;3.160;2022-07-23T13:19:20;11.17;;;10.07;;
11921;SDS011;6021;51.182;3.160;2022-07-23T13:21:49;11.47;;;10.47;;
11921;SDS011;6021;51.182;3.160;2022-07-23T13:24:17;10.23;;;9.23;;
11921;SDS011;6021;51.182;3.160;2022-07-23T13:26:46;8.67;;;7.90;;
11921;SDS011;6021;51.182;3.160;2022-07-23T13:29:16;11.00;;;9.90;;
11921;SDS011;6021;51.182;3.160;2022-07-23T13:31:44;13.13;;;11.83;;
11921;SDS011;6021;51.182;3.160;2022-07-23T13:34:15;11.13;;;9.97;;
11921;SDS011;6021;51.182;3.160;2022-07-23T13:36:43;10.40;;;9.30;;
11921;SDS011;6021;51.182;3.160;2022-07-23T13:39:12;12.17;;;11.07;;
11921;SDS011;6021;51.182;3.160;2022-07-23T13:41:40;12.60;;;11.37;;
11921;SDS011;6021;51.182;3.160;2022-07-23T13:44:09;14.17;;;12.77;;
11921;SDS011;6021;51.182;3.160;2022-07-23T13:46:37;12.53;;;11.43;;
11921;SDS011;6021;51.182;3.160;2022-07-23T13:49:06;12.47;;;11.17;;
11921;SDS011;6021;51.182;3.160;2022-07-23T13:51:34;9.77;;;8.90;;
11921;SDS011;6021;51.182;3.160;2022-07-23T13:54:04;16.00;;;14.40;;
11921;SDS011;6021;51.182;3.160;2022-07-23T13:56:32;14.37;;;12.97;;
11921;SDS011;6021;51.182;3.160;2022-07-23T13:59:01;14.43;;;12.97;;
11921;SDS011;6021;51.182;3.160;2022-07-23T14:01:29;15.93;;;14.20;;
11921;SDS011;6021;51.182;3.160;2022-07-23T14:03:58;14.30;;;13.00;;
11921;SDS011;6021;51.182;3.160;2022-07-23T14:06:26;12.23;;;10.93;;
11921;SDS011;6021;51.182;3.160;2022-07-23T14:08:55;15.63;;;14.03;;
11921;SDS011;6021;51.182;3.160;2022-07-23T14:11:23;12.37;;;11.10;;
11921;SDS011;6021;51.182;3.160;2022-07-23T14:13:51;12.60;;;11.40;;
11921;SDS011;6021;51.182;3.160;2022-07-23T14:16:20;8.97;;;8.10;;
11921;SDS011;6021;51.182;3.160;2022-07-23T14:18:48;15.87;;;14.37;;
11921;SDS011;6021;51.182;3.160;2022-07-23T14:21:16;12.50;;;11.03;;
11921;SDS011;6021;51.182;3.160;2022-07-23T14:23:45;13.10;;;11.53;;
11921;SDS011;6021;51.182;3.160;2022-07-23T14:26:13;10.03;;;9.13;;
11921;SDS011;6021;51.182;3.160;2022-07-23T14:28:42;12.47;;;11.17;;
11921;SDS011;6021;51.182;3.160;2022-07-23T14:31:10;12.53;;;11.23;;
11921;SDS011;6021;51.182;3.160;2022-07-23T14:33:38;8.80;;;7.83;;
11921;SDS011;6021;51.182;3.160;2022-07-23T14:36:07;17.60;;;14.97;;
11921;SDS011;6021;51.182;3.160;2022-07-23T14:38:35;13.03;;;11.73;;
11921;SDS011;6021;51.182;3.160;2022-07-23T14:41:03;15.80;;;14.20;;
11921;SDS011;6021;51.182;3.160;2022-07-23T14:43:34;15.03;;;13.43;;
11921;SDS011;6021;51.182;3.160;2022-07-23T14:46:03;10.77;;;9.53;;
11921;SDS011;6021;51.182;3.160;2022-07-23T14:48:31;14.60;;;13.03;;
11921;SDS011;6021;51.182;3.160;2022-07-23T14:51:00;11.60;;;10.50;;
11921;SDS011;6021;51.182;3.160;2022-07-23T14:53:28;11.67;;;10.47;;
11921;SDS011;6021;51.182;3.160;2022-07-23T14:55:57;11.87;;;10.43;;
11921;SDS011;6021;51.182;3.160;2022-07-23T14:58:25;11.57;;;9.63;;
11921;SDS011;6021;51.182;3.160;2022-07-23T15:00:54;10.63;;;9.47;;
11921;SDS011;6021;51.182;3.160;2022-07-23T15:03:22;10.00;;;9.00;;
11921;SDS011;6021;51.182;3.160;2022-07-23T15:05:51;12.07;;;9.83;;
11921;SDS011;6021;51.182;3.160;2022-07-23T15:08:19;17.00;;;14.17;;
11921;SDS011;6021;51.182;3.160;2022-07-23T15:10:48;16.07;;;14.43;;
11921;SDS011;6021;51.182;3.160;2022-07-23T15:13:16;15.93;;;14.20;;
11921;SDS011;6021;51.182;3.160;2022-07-23T15:15:45;13.43;;;11.77;;
11921;SDS011;6021;51.182;3.160;2022-07-23T15:18:13;20.87;;;18.70;;
11921;SDS011;6021;51.182;3.160;2022-07-23T15:20:42;11.53;;;10.43;;
11921;SDS011;6021;51.182;3.160;2022-07-23T15:23:11;12.53;;;11.23;;
11921;SDS011;6021;51.182;3.160;2022-07-23T15:25:39;21.37;;;19.17;;
11921;SDS011;6021;51.182;3.160;2022-07-23T15:28:08;17.17;;;15.57;;
11921;SDS011;6021;51.182;3.160;2022-07-23T15:30:36;20.07;;;17.97;;
11921;SDS011;6021;51.182;3.160;2022-07-23T15:33:04;21.77;;;19.57;;
11921;SDS011;6021;51.182;3.160;2022-07-23T15:35:33;19.73;;;17.73;;
11921;SDS011;6021;51.182;3.160;2022-07-23T15:38:01;17.83;;;16.10;;
11921;SDS011;6021;51.182;3.160;2022-07-23T15:40:30;20.00;;;18.10;;
11921;SDS011;6021;51.182;3.160;2022-07-23T15:42:58;23.13;;;20.73;;
11921;SDS011;6021;51.182;3.160;2022-07-23T15:45:27;20.80;;;18.73;;
11921;SDS011;6021;51.182;3.160;2022-07-23T15:47:57;22.73;;;20.67;;
11921;SDS011;6021;51.182;3.160;2022-07-23T15:50:26;18.90;;;17.20;;
11921;SDS011;6021;51.182;3.160;2022-07-23T15:52:54;15.57;;;13.97;;